Date,TemperatureHighF,TemperatureAvgF,TemperatureLowF,DewpointHighF,DewpointAvgF,DewpointLowF,HumidityHigh,HumidityAvg,HumidityLow,PressureMaxIn,PressureMinIn,WindSpeedMaxMPH,WindSpeedAvgMPH,GustSpeedMaxMPH,PrecipitationSumIn
2013-5-1,76.7,68.6,60.3,72.1,66.7,60.0,100,94,77,30.14,30.04,10,3,13,0.01
2013-5-2,76.3,69.5,63.5,71.4,66.7,61.4,100,91,82,30.16,30.08,10,3,15,0.00
2013-5-3,76.9,70.3,61.8,70.3,65.8,59.8,99,86,72,30.13,30.04,9,2,14,0.02
2013-5-4,74.3,68.9,64.1,70.0,67.3,63.2,100,95,82,30.07,29.97,6,2,9,0.21
2013-5-5,74.2,69.1,65.5,70.7,67.9,65.4,100,96,84,30.05,29.93,4,1,6,0.13
2013-5-6,77.2,70.3,63.2,72.5,67.4,62.6,99,91,79,30.01,29.92,7,2,11,0.00
2013-5-8,80.8,76.0,69.6,74.0,72.3,68.7,100,89,78,30.07,29.97,6,2,10,0.00
2013-5-9,77.0,72.3,68.5,74.4,71.5,67.9,100,97,89,30.13,30.01,5,1,7,0.85
2013-5-10,75.4,72.0,69.5,73.6,71.5,69.5,100,98,93,30.15,30.05,4,1,4,0.24
2013-5-11,77.3,72.6,66.6,73.4,71.0,66.6,100,95,85,30.13,30.03,4,1,8,0.09
2013-5-12,77.1,72.5,68.4,73.2,70.5,67.1,100,94,85,30.13,30.04,7,2,13,0.02
2013-5-13,79.1,73.2,67.7,72.0,68.9,63.9,97,87,71,30.12,30.04,8,3,14,0.00
2013-5-14,79.9,72.6,64.9,73.4,67.6,61.9,95,85,71,30.16,30.07,11,4,19,0.00
2013-5-15,79.8,73.0,65.5,71.3,67.0,62.4,95,82,67,30.18,30.08,13,4,19,0.00
2013-5-16,81.9,72.5,65.0,72.7,66.0,62.0,94,80,58,30.16,30.07,13,4,20,0.00
2013-5-17,78.0,70.7,65.6,71.4,66.9,63.3,100,88,68,30.12,30.03,10,4,16,0.39
2013-5-18,76.9,69.3,65.5,70.9,68.0,64.8,100,96,79,30.10,30.02,7,2,11,0.02
2013-5-19,73.0,68.8,65.1,71.1,68.3,64.8,100,98,90,30.06,29.96,5,1,9,0.35
2013-5-20,76.4,70.1,65.5,73.3,69.0,65.0,100,97,86,30.05,29.95,7,2,9,0.05
2013-5-21,77.8,71.1,63.5,73.9,68.9,62.4,100,93,76,30.08,29.98,6,2,9,0.04
2013-5-22,79.9,72.6,64.9,74.5,70.0,64.6,100,92,76,30.11,30.00,6,2,11,0.06
2013-5-23,76.8,72.0,67.8,74.2,70.7,67.5,100,96,86,30.10,30.01,7,2,12,0.00
2013-5-24,77.2,71.8,67.0,72.7,69.2,65.7,99,92,85,30.11,30.02,9,3,14,0.00
2013-5-25,80.4,72.7,65.5,74.4,69.3,63.8,100,89,73,30.12,30.01,12,4,20,0.01
2013-5-26,74.0,70.6,67.2,71.3,68.9,66.5,100,94,83,30.17,30.05,9,2,19,0.11
2013-5-27,74.2,69.8,67.3,71.2,68.2,65.1,100,95,85,30.17,30.08,7,2,12,0.01
2013-5-28,78.4,71.7,64.4,73.8,69.9,64.1,100,94,79,30.18,30.08,9,3,16,2.05
2013-5-29,76.2,70.4,66.3,73.4,69.9,66.3,100,98,90,30.15,30.06,6,2,10,0.13
2013-5-30,76.8,70.9,63.5,73.3,69.0,63.5,100,94,85,30.10,30.00,8,2,13,0.00
2013-5-31,76.2,71.9,65.6,73.0,69.8,64.3,99,93,87,30.11,30.00,7,2,12,0.00